createdAt,value
2018-02-13T00:00:50.899Z,84.29
2018-02-13T00:03:21.995Z,84.47
2018-02-13T00:05:52.859Z,85.04
2018-02-13T00:08:23.860Z,84.87
2018-02-13T00:10:55.276Z,84.76
2018-02-13T00:13:26.061Z,86.14
2018-02-13T00:15:57.284Z,84.63
2018-02-13T00:18:28.045Z,85.42
2018-02-13T00:20:58.816Z,85.53
2018-02-13T00:23:29.587Z,85.17
2018-02-13T00:26:01.000Z,85.17
2018-02-13T00:28:31.752Z,85.48
2018-02-13T00:31:03.225Z,84.86
2018-02-13T00:33:36.270Z,84.12
2018-02-13T00:36:07.092Z,84.60
2018-02-13T00:38:38.136Z,83.93
2018-02-13T00:41:09.360Z,83.83
2018-02-13T00:43:40.276Z,83.55
2018-02-13T00:46:11.921Z,83.24
2018-02-13T00:48:43.178Z,83.38
2018-02-13T00:51:14.049Z,84.65
2018-02-13T00:53:44.920Z,84.30
2018-02-13T00:56:15.777Z,83.45
2018-02-13T00:58:46.612Z,83.40
2018-02-13T01:01:17.724Z,83.60
2018-02-13T01:03:48.534Z,84.11
2018-02-13T01:06:19.304Z,84.73
2018-02-13T01:08:50.762Z,84.22
2018-02-13T01:11:22.081Z,83.63
2018-02-13T01:13:52.898Z,84.67
2018-02-13T01:16:23.656Z,85.08
2018-02-13T01:18:54.797Z,84.79
2018-02-13T01:21:25.952Z,85.73
2018-02-13T01:23:57.500Z,85.99
2018-02-13T01:26:29.366Z,85.28
2018-02-13T01:29:00.436Z,84.91
2018-02-13T01:31:32.220Z,85.10
2018-02-13T01:34:03.827Z,85.47
2018-02-13T01:36:35.320Z,85.81
2018-02-13T01:39:07.108Z,83.98
2018-02-13T01:41:38.556Z,84.85
2018-02-13T01:44:09.996Z,85.17
2018-02-13T01:46:41.876Z,85.33
2018-02-13T01:49:12.672Z,85.59
2018-02-13T01:51:43.581Z,84.58
2018-02-13T01:54:15.483Z,84.58
2018-02-13T01:56:46.868Z,84.51
2018-02-13T01:59:18.207Z,84.46
2018-02-13T02:01:50.072Z,84.54
2018-02-13T02:04:21.782Z,84.45
2018-02-13T02:06:52.900Z,85.23
2018-02-13T02:09:24.484Z,84.13
2018-02-13T02:11:55.777Z,84.78
2018-02-13T02:14:27.553Z,84.51
2018-02-13T02:16:58.952Z,84.31
2018-02-13T02:19:30.925Z,85.40
2018-02-13T02:22:02.719Z,85.20
2018-02-13T02:24:34.872Z,83.79
2018-02-13T02:27:06.007Z,84.35
2018-02-13T02:29:37.825Z,84.07
2018-02-13T02:32:08.956Z,83.74
2018-02-13T02:34:40.806Z,84.29
2018-02-13T02:37:11.961Z,83.59
2018-02-13T02:39:43.418Z,83.90
2018-02-13T02:42:14.877Z,83.50
2018-02-13T02:44:45.796Z,83.75
2018-02-13T02:47:17.094Z,83.37
2018-02-13T02:49:48.607Z,83.36
2018-02-13T02:52:19.768Z,84.90
2018-02-13T02:54:51.178Z,84.79
2018-02-13T02:57:22.523Z,84.24
2018-02-13T02:59:54.025Z,83.65
2018-02-13T03:02:25.655Z,83.15
2018-02-13T03:04:56.953Z,83.41
2018-02-13T03:07:28.418Z,82.70
2018-02-13T03:10:00.402Z,82.92
2018-02-13T03:12:32.101Z,82.42
2018-02-13T03:15:03.649Z,82.97
2018-02-13T03:17:35.508Z,83.28
2018-02-13T03:20:06.664Z,83.52
2018-02-13T03:22:37.917Z,82.88
2018-02-13T03:25:09.161Z,82.06
2018-02-13T03:27:40.324Z,82.90
2018-02-13T03:30:11.825Z,82.74
2018-02-13T03:32:43.792Z,83.68
2018-02-13T03:35:15.120Z,82.21
2018-02-13T03:37:46.632Z,82.26
2018-02-13T03:40:18.292Z,82.52
2018-02-13T03:42:49.574Z,82.49
2018-02-13T03:45:20.641Z,82.74
2018-02-13T03:47:52.161Z,81.56
2018-02-13T03:50:23.333Z,80.54
2018-02-13T03:52:54.686Z,81.41
2018-02-13T03:55:25.893Z,80.92
2018-02-13T03:57:57.249Z,81.74
2018-02-13T04:00:28.285Z,82.20
2018-02-13T04:03:00.045Z,81.79
2018-02-13T04:05:31.592Z,81.59
2018-02-13T04:08:02.720Z,80.98
2018-02-13T04:10:34.429Z,81.49
2018-02-13T04:13:05.742Z,81.47
2018-02-13T04:15:37.302Z,82.56
2018-02-13T04:18:08.756Z,83.18
2018-02-13T04:20:40.273Z,83.21
2018-02-13T04:23:11.437Z,82.55
2018-02-13T04:25:42.746Z,83.09
2018-02-13T04:28:14.236Z,83.19
2018-02-13T04:30:45.975Z,82.93
2018-02-13T04:33:17.460Z,81.58
2018-02-13T04:35:49.596Z,81.37
2018-02-13T04:38:21.601Z,80.94
2018-02-13T04:40:53.031Z,81.49
2018-02-13T04:43:24.425Z,80.85
2018-02-13T04:45:55.821Z,81.17
2018-02-13T04:48:27.266Z,80.91
2018-02-13T04:50:58.816Z,81.24
2018-02-13T04:53:30.344Z,81.43
2018-02-13T04:56:02.105Z,80.81
2018-02-13T04:58:34.693Z,81.15
2018-02-13T05:01:05.860Z,81.12
2018-02-13T05:03:37.601Z,80.54
2018-02-13T05:06:09.185Z,81.17
2018-02-13T05:08:40.776Z,81.74
2018-02-13T05:11:12.057Z,82.36
2018-02-13T05:13:43.472Z,82.64
2018-02-13T05:16:14.838Z,81.50
2018-02-13T05:18:46.497Z,82.19
2018-02-13T05:21:17.916Z,82.60
2018-02-13T05:23:49.092Z,82.53
2018-02-13T05:26:20.965Z,82.96
2018-02-13T05:28:52.277Z,82.68
2018-02-13T05:31:23.572Z,83.09
2018-02-13T05:33:55.539Z,83.08
2018-02-13T05:36:27.278Z,83.30
2018-02-13T05:38:59.288Z,83.26
2018-02-13T05:41:30.851Z,83.44
2018-02-13T05:44:02.483Z,83.72
2018-02-13T05:46:34.730Z,83.28
2018-02-13T05:49:06.328Z,83.69
2018-02-13T05:51:37.489Z,83.34
2018-02-13T05:54:09.325Z,83.61
2018-02-13T05:56:40.640Z,83.75
2018-02-13T05:59:12.227Z,83.44
2018-02-13T06:01:44.221Z,83.48
2018-02-13T06:04:15.769Z,83.60
2018-02-13T06:06:46.586Z,83.72
2018-02-13T06:09:18.388Z,83.06
2018-02-13T06:11:50.141Z,83.54
2018-02-13T06:14:21.208Z,83.39
2018-02-13T06:16:54.272Z,83.33
2018-02-13T06:19:26.435Z,83.45
2018-02-13T06:22:00.200Z,82.66
2018-02-13T06:24:31.008Z,82.20
2018-02-13T06:27:02.072Z,82.80
2018-02-13T06:29:35.673Z,82.31
2018-02-13T06:32:06.916Z,82.62
2018-02-13T06:34:41.722Z,81.67
2018-02-13T06:37:13.517Z,81.50
2018-02-13T06:39:44.385Z,81.63
2018-02-13T06:42:15.480Z,82.38
2018-02-13T06:44:46.268Z,82.83
2018-02-13T06:47:17.064Z,82.82
2018-02-13T06:49:48.264Z,82.85
2018-02-13T06:52:19.056Z,83.04
2018-02-13T06:54:49.900Z,82.30
2018-02-13T06:57:21.015Z,82.56
2018-02-13T06:59:52.611Z,82.62
2018-02-13T07:02:24.322Z,82.48
2018-02-13T07:04:55.401Z,82.04
2018-02-13T07:07:26.649Z,81.66
2018-02-13T07:09:58.747Z,81.75
2018-02-13T07:12:29.788Z,81.94
2018-02-13T07:15:00.916Z,81.52
2018-02-13T07:17:31.709Z,81.74
2018-02-13T07:20:02.543Z,81.32
2018-02-13T07:22:34.380Z,81.68
2018-02-13T07:25:06.049Z,81.42
2018-02-13T07:27:37.125Z,81.70
2018-02-13T07:30:08.449Z,81.50
2018-02-13T07:32:40.236Z,81.46
2018-02-13T07:35:11.396Z,81.50
2018-02-13T07:37:42.830Z,81.45
2018-02-13T07:40:14.325Z,81.45
2018-02-13T07:42:45.781Z,81.06
2018-02-13T07:45:17.017Z,80.96
2018-02-13T07:47:47.877Z,81.52
2018-02-13T07:50:19.644Z,81.23
2018-02-13T07:52:50.920Z,81.08
2018-02-13T07:55:22.424Z,81.20
2018-02-13T07:57:53.801Z,81.20
2018-02-13T08:00:24.708Z,81.32
2018-02-13T08:02:55.845Z,81.14
2018-02-13T08:05:27.560Z,81.15
2018-02-13T08:07:58.413Z,81.67
2018-02-13T08:10:29.236Z,81.13
2018-02-13T08:13:00.444Z,80.64
2018-02-13T08:15:33.520Z,80.80
2018-02-13T08:18:04.790Z,80.12
2018-02-13T08:20:35.950Z,79.83
2018-02-13T08:23:06.711Z,80.08
2018-02-13T08:25:37.745Z,80.39
2018-02-13T08:28:08.619Z,78.79
2018-02-13T08:30:39.450Z,79.62
2018-02-13T08:33:11.172Z,79.54
2018-02-13T08:35:42.369Z,79.41
2018-02-13T08:38:13.163Z,79.25
2018-02-13T08:40:44.661Z,78.37
2018-02-13T08:43:16.833Z,77.52
2018-02-13T08:45:47.656Z,78.07
2018-02-13T08:48:19.080Z,77.31
2018-02-13T08:50:50.713Z,77.18
2018-02-13T08:53:21.584Z,77.51
2018-02-13T08:55:52.841Z,77.14
2018-02-13T08:58:23.973Z,77.44
2018-02-13T09:00:54.813Z,76.95
2018-02-13T09:03:26.229Z,76.83
2018-02-13T09:05:57.040Z,76.00
2018-02-13T09:08:28.108Z,77.24
2018-02-13T09:10:58.992Z,76.70
2018-02-13T09:13:29.751Z,76.34
2018-02-13T09:16:00.540Z,76.48
2018-02-13T09:18:32.220Z,76.35
2018-02-13T09:21:02.961Z,76.61
2018-02-13T09:23:34.130Z,75.70
2018-02-13T09:26:05.133Z,75.30
2018-02-13T09:28:35.904Z,75.59
2018-02-13T09:31:07.568Z,75.27
2018-02-13T09:33:38.968Z,75.42
2018-02-13T09:36:10.165Z,75.68
2018-02-13T09:38:40.956Z,75.29
2018-02-13T09:41:12.140Z,75.35
2018-02-13T09:43:43.401Z,73.67
2018-02-13T09:46:15.005Z,74.70
2018-02-13T09:48:46.108Z,72.93
2018-02-13T09:51:17.478Z,73.41
2018-02-13T09:53:48.868Z,73.02
2018-02-13T09:56:20.458Z,72.93
2018-02-13T09:58:51.748Z,72.47
2018-02-13T10:01:22.629Z,72.74
2018-02-13T10:03:53.988Z,72.73
2018-02-13T10:06:25.134Z,71.96
2018-02-13T10:08:56.593Z,72.07
2018-02-13T10:11:27.420Z,71.02
2018-02-13T10:13:58.213Z,71.10
2018-02-13T10:16:29.874Z,70.89
2018-02-13T10:19:00.713Z,70.92
2018-02-13T10:21:31.772Z,70.66
2018-02-13T10:24:02.948Z,71.07
2018-02-13T10:26:34.533Z,70.02
2018-02-13T10:29:05.373Z,69.46
2018-02-13T10:31:37.329Z,69.96
2018-02-13T10:34:08.108Z,69.68
2018-02-13T10:36:39.920Z,68.70
2018-02-13T10:39:10.972Z,68.82
2018-02-13T10:41:41.758Z,67.73
2018-02-13T10:44:13.290Z,67.77
2018-02-13T10:46:44.785Z,68.21
2018-02-13T10:49:15.493Z,66.72
2018-02-13T10:51:46.761Z,66.21
2018-02-13T10:54:18.432Z,65.08
2018-02-13T10:56:49.734Z,65.22
2018-02-13T10:59:21.540Z,64.77
2018-02-13T11:01:56.444Z,62.97
2018-02-13T11:04:27.261Z,63.57
2018-02-13T11:06:58.318Z,62.79
2018-02-13T11:09:29.188Z,61.59
2018-02-13T11:12:00.065Z,62.89
2018-02-13T11:14:31.311Z,63.09
2018-02-13T11:17:02.082Z,64.11
2018-02-13T11:19:32.917Z,61.81
2018-02-13T11:22:04.870Z,64.25
2018-02-13T11:24:35.626Z,63.18
2018-02-13T11:27:06.766Z,64.25
2018-02-13T11:29:38.192Z,63.56
2018-02-13T11:32:09.056Z,63.22
2018-02-13T11:34:40.505Z,62.45
2018-02-13T11:37:11.786Z,62.50
2018-02-13T11:39:42.613Z,61.26
2018-02-13T11:42:13.380Z,60.47
2018-02-13T11:44:44.296Z,60.55
2018-02-13T11:47:15.433Z,61.42
2018-02-13T11:49:46.270Z,61.00
2018-02-13T11:52:17.031Z,59.32
2018-02-13T11:54:48.148Z,60.45
2018-02-13T11:57:19.016Z,59.56
2018-02-13T11:59:49.890Z,59.42
2018-02-13T12:02:21.004Z,57.68
2018-02-13T12:04:51.745Z,58.30
2018-02-13T12:07:22.526Z,59.24
2018-02-13T12:09:53.712Z,57.50
2018-02-13T12:12:24.520Z,57.99
2018-02-13T12:14:56.184Z,57.47
2018-02-13T12:17:27.052Z,56.87
2018-02-13T12:19:57.873Z,57.17
2018-02-13T12:22:29.041Z,57.17
2018-02-13T12:24:59.812Z,54.48
2018-02-13T12:27:31.208Z,52.33
2018-02-13T12:30:02.352Z,51.17
2018-02-13T12:32:34.049Z,52.77
2018-02-13T12:35:05.054Z,51.97
2018-02-13T12:37:36.224Z,51.84
2018-02-13T12:40:07.110Z,51.08
2018-02-13T12:42:39.195Z,53.20
2018-02-13T12:45:10.161Z,53.83
2018-02-13T12:47:41.504Z,51.29
2018-02-13T12:50:12.712Z,50.66
2018-02-13T12:52:43.724Z,49.08
2018-02-13T12:55:15.147Z,48.09
2018-02-13T12:57:46.528Z,47.30
2018-02-13T13:00:17.655Z,50.17
2018-02-13T13:02:49.797Z,47.87
2018-02-13T13:05:20.822Z,48.20
2018-02-13T13:07:52.529Z,49.21
2018-02-13T13:10:23.722Z,47.30
2018-02-13T13:12:54.534Z,49.24
2018-02-13T13:15:25.616Z,47.66
2018-02-13T13:17:56.440Z,50.39
2018-02-13T13:20:27.904Z,50.26
2018-02-13T13:22:59.662Z,48.54
2018-02-13T13:25:30.563Z,48.99
2018-02-13T13:28:01.753Z,48.20
2018-02-13T13:30:33.345Z,48.36
2018-02-13T13:33:04.324Z,49.21
2018-02-13T13:35:35.433Z,49.16
2018-02-13T13:38:06.257Z,49.12
2018-02-13T13:40:37.061Z,49.23
2018-02-13T13:43:08.167Z,48.45
2018-02-13T13:45:39.028Z,49.02
2018-02-13T13:48:09.805Z,49.63
2018-02-13T13:50:41.248Z,50.02
2018-02-13T13:53:12.107Z,50.26
2018-02-13T13:55:42.962Z,50.54
2018-02-13T13:58:14.017Z,50.21
2018-02-13T14:00:44.876Z,50.47
2018-02-13T14:03:15.960Z,50.91
2018-02-13T14:05:46.820Z,50.34
2018-02-13T14:08:17.584Z,49.60
2018-02-13T14:10:48.422Z,50.57
2018-02-13T14:13:19.230Z,50.76
2018-02-13T14:15:50.112Z,51.36
2018-02-13T14:18:21.185Z,50.35
2018-02-13T14:20:52.039Z,51.06
2018-02-13T14:23:22.829Z,50.27
2018-02-13T14:25:53.655Z,50.35
2018-02-13T14:28:24.468Z,51.06
2018-02-13T14:30:55.244Z,51.50
2018-02-13T14:33:26.321Z,51.13
2018-02-13T14:35:58.904Z,52.01
2018-02-13T14:38:29.718Z,51.63
2018-02-13T14:41:00.565Z,51.95
2018-02-13T14:43:31.349Z,51.37
2018-02-13T14:46:02.495Z,50.67
2018-02-13T14:48:33.273Z,50.48
2018-02-13T14:51:04.609Z,50.59
2018-02-13T14:53:35.438Z,50.73
2018-02-13T14:56:06.664Z,51.05
2018-02-13T14:58:37.512Z,50.93
2018-02-13T15:01:08.400Z,50.64
2018-02-13T15:03:39.209Z,51.88
2018-02-13T15:06:10.043Z,50.23
2018-02-13T15:08:40.984Z,50.66
2018-02-13T15:11:12.073Z,50.55
2018-02-13T15:13:43.476Z,50.84
2018-02-13T15:16:14.380Z,50.73
2018-02-13T15:18:45.408Z,50.96
2018-02-13T15:21:16.237Z,50.59
2018-02-13T15:23:47.025Z,51.98
2018-02-13T15:26:18.229Z,52.62
2018-02-13T15:28:49.314Z,52.25
2018-02-13T15:31:20.321Z,52.22
2018-02-13T15:33:51.153Z,52.68
2018-02-13T15:36:22.388Z,52.58
2018-02-13T15:38:53.287Z,52.36
2018-02-13T15:41:24.395Z,52.43
2018-02-13T15:43:55.755Z,51.59
2018-02-13T15:46:26.949Z,52.19
2018-02-13T15:48:58.049Z,52.20
2018-02-13T15:51:28.889Z,53.43
2018-02-13T15:53:59.729Z,52.45
2018-02-13T15:56:30.617Z,52.90
2018-02-13T15:59:01.768Z,52.81
2018-02-13T16:01:32.536Z,52.95
2018-02-13T16:04:03.408Z,53.06
2018-02-13T16:06:35.048Z,52.52
2018-02-13T16:09:06.456Z,52.95
2018-02-13T16:11:37.506Z,52.32
2018-02-13T16:14:08.323Z,52.27
2018-02-13T16:16:39.113Z,52.56
2018-02-13T16:19:10.209Z,51.91
2018-02-13T16:21:41.100Z,52.42
2018-02-13T16:24:12.400Z,52.95
2018-02-13T16:26:43.289Z,53.06
2018-02-13T16:29:14.153Z,54.96
2018-02-13T16:31:45.052Z,54.95
2018-02-13T16:34:16.213Z,54.68
2018-02-13T16:36:47.041Z,54.83
2018-02-13T16:39:17.917Z,55.25
2018-02-13T16:41:49.093Z,55.23
2018-02-13T16:44:19.953Z,54.88
2018-02-13T16:46:50.909Z,55.90
2018-02-13T16:49:21.708Z,56.05
2018-02-13T16:51:52.830Z,56.01
2018-02-13T16:54:24.709Z,56.28
2018-02-13T16:56:55.596Z,58.97
2018-02-13T16:59:26.357Z,59.53
2018-02-13T17:01:58.025Z,58.46
2018-02-13T17:04:28.797Z,60.28
2018-02-13T17:06:59.620Z,59.94
2018-02-13T17:09:30.776Z,59.29
2018-02-13T17:12:01.736Z,57.88
2018-02-13T17:14:33.183Z,57.80
2018-02-13T17:17:04.301Z,58.66
2018-02-13T17:19:35.157Z,58.64
2018-02-13T17:22:05.984Z,59.33
2018-02-13T17:24:37.133Z,58.46
2018-02-13T17:27:08.445Z,59.85
2018-02-13T17:29:39.276Z,60.24
2018-02-13T17:32:10.449Z,59.44
2018-02-13T17:34:41.312Z,60.64
2018-02-13T17:37:12.125Z,59.84
2018-02-13T17:39:43.238Z,59.87
2018-02-13T17:42:14.017Z,60.45
2018-02-13T17:44:44.802Z,59.88
2018-02-13T17:47:15.688Z,60.05
2018-02-13T17:49:46.548Z,60.08
2018-02-13T17:52:17.668Z,60.56
2018-02-13T17:54:48.564Z,60.17
2018-02-13T17:57:19.508Z,60.26
2018-02-13T17:59:50.535Z,60.39
2018-02-13T18:02:21.391Z,60.49
2018-02-13T18:04:52.310Z,60.64
2018-02-13T18:07:23.788Z,61.11
2018-02-13T18:09:54.648Z,61.03
2018-02-13T18:12:25.544Z,61.24
2018-02-13T18:14:56.627Z,62.27
2018-02-13T18:17:27.432Z,61.90
2018-02-13T18:19:58.318Z,62.96
2018-02-13T18:22:29.433Z,62.96
2018-02-13T18:25:00.352Z,63.16
2018-02-13T18:27:31.817Z,63.24
2018-02-13T18:30:02.852Z,63.43
2018-02-13T18:32:34.944Z,63.53
2018-02-13T18:35:06.193Z,64.33
2018-02-13T18:37:36.968Z,64.39
2018-02-13T18:40:07.803Z,63.76
2018-02-13T18:42:39.500Z,63.65
2018-02-13T18:45:10.246Z,63.29
2018-02-13T18:47:41.054Z,64.32
2018-02-13T18:50:12.458Z,64.97
2018-02-13T18:55:14.604Z,64.83
2018-02-13T18:57:46.430Z,63.68
2018-02-13T19:00:17.992Z,63.48
2018-02-13T19:02:49.465Z,63.96
2018-02-13T19:05:20.410Z,64.22
2018-02-13T19:07:51.274Z,64.42
2018-02-13T19:10:22.241Z,63.80
2018-02-13T19:12:53.085Z,63.70
2018-02-13T19:15:23.921Z,64.70
2018-02-13T19:17:55.393Z,63.99
2018-02-13T19:20:26.280Z,64.42
2018-02-13T19:22:57.121Z,64.89
2018-02-13T19:25:28.101Z,64.44
2018-02-13T19:27:59.119Z,64.56
2018-02-13T19:30:30.275Z,64.28
2018-02-13T19:33:01.424Z,64.70
2018-02-13T19:35:33.558Z,64.53
2018-02-13T19:38:05.441Z,65.37
2018-02-13T19:40:36.441Z,64.78
2018-02-13T19:43:07.520Z,65.41
2018-02-13T19:45:38.402Z,64.98
2018-02-13T19:48:10.165Z,65.48
2018-02-13T19:50:41.100Z,65.00
2018-02-13T19:53:12.201Z,65.18
2018-02-13T19:55:43.426Z,65.39
2018-02-13T19:58:14.329Z,66.18
2018-02-13T20:00:45.477Z,65.78
2018-02-13T20:03:17.153Z,65.55
2018-02-13T20:05:48.118Z,65.83
2018-02-13T20:08:18.916Z,66.60
2018-02-13T20:10:50.280Z,67.54
2018-02-13T20:13:21.149Z,66.40
2018-02-13T20:15:53.185Z,66.54
2018-02-13T20:18:25.017Z,66.47
2018-02-13T20:20:56.005Z,68.16
2018-02-13T20:23:27.399Z,66.97
2018-02-13T20:25:58.377Z,66.55
2018-02-13T20:28:29.235Z,67.24
2018-02-13T20:31:01.016Z,68.54
2018-02-13T20:33:31.862Z,69.45
2018-02-13T20:36:02.877Z,68.22
2018-02-13T20:38:33.737Z,68.56
2018-02-13T20:41:04.929Z,68.75
2018-02-13T20:43:35.816Z,68.63
2018-02-13T20:46:06.747Z,68.45
2018-02-13T20:48:37.630Z,68.85
2018-02-13T20:51:08.447Z,69.13
2018-02-13T20:53:39.700Z,68.27
2018-02-13T20:56:10.839Z,68.58
2018-02-13T20:58:41.805Z,69.78
2018-02-13T21:01:12.774Z,70.50
2018-02-13T21:03:43.939Z,69.33
2018-02-13T21:06:14.993Z,69.42
2018-02-13T21:08:46.117Z,68.79
2018-02-13T21:11:16.977Z,70.53
2018-02-13T21:13:48.161Z,70.11
2018-02-13T21:16:19.596Z,68.22
2018-02-13T21:18:50.353Z,67.81
2018-02-13T21:21:21.528Z,67.92
2018-02-13T21:23:52.361Z,68.55
2018-02-13T21:26:23.136Z,68.33
2018-02-13T21:28:54.230Z,68.88
2018-02-13T21:31:25.129Z,67.93
2018-02-13T21:33:55.987Z,68.08
2018-02-13T21:36:27.053Z,68.36
2018-02-13T21:38:58.055Z,68.35
2018-02-13T21:41:29.156Z,69.37
2018-02-13T21:43:59.931Z,68.90
2018-02-13T21:46:30.990Z,69.13
2018-02-13T21:49:01.884Z,70.17
2018-02-13T21:51:32.725Z,70.97
2018-02-13T21:54:03.912Z,70.63
2018-02-13T21:56:34.749Z,70.47
2018-02-13T21:59:05.652Z,70.34
2018-02-13T22:01:36.557Z,70.05
2018-02-13T22:04:07.420Z,69.89
2018-02-13T22:06:38.284Z,69.98
2018-02-13T22:09:09.422Z,70.12
2018-02-13T22:11:40.465Z,69.63
2018-02-13T22:14:11.322Z,70.06
2018-02-13T22:16:42.205Z,70.19
2018-02-13T22:19:13.195Z,70.58
2018-02-13T22:21:44.496Z,70.99
2018-02-13T22:24:15.733Z,70.87
2018-02-13T22:26:46.513Z,71.47
2018-02-13T22:29:17.645Z,73.02
2018-02-13T22:31:48.511Z,72.30
2018-02-13T22:34:19.450Z,71.59
2018-02-13T22:36:50.804Z,70.65
2018-02-13T22:39:21.703Z,70.96
2018-02-13T22:41:52.588Z,71.28
2018-02-13T22:44:23.913Z,71.33
2018-02-13T22:46:54.841Z,71.03
2018-02-13T22:49:25.637Z,70.05
2018-02-13T22:51:56.795Z,70.29
2018-02-13T22:54:27.751Z,70.96
2018-02-13T22:56:58.544Z,70.86
2018-02-13T22:59:29.797Z,70.97
2018-02-13T23:02:00.649Z,71.01
2018-02-13T23:04:31.458Z,70.89
2018-02-13T23:07:02.398Z,71.96
2018-02-13T23:09:33.232Z,73.25
2018-02-13T23:12:04.010Z,72.09
2018-02-13T23:14:35.141Z,71.64
2018-02-13T23:17:06.034Z,75.02
2018-02-13T23:19:36.883Z,73.35
2018-02-13T23:22:07.912Z,72.65
2018-02-13T23:24:38.759Z,71.42
2018-02-13T23:27:09.572Z,71.39
2018-02-13T23:29:41.164Z,71.53
2018-02-13T23:32:12.805Z,71.65
2018-02-13T23:34:43.573Z,72.28
2018-02-13T23:37:14.433Z,73.87
2018-02-13T23:39:45.317Z,73.48
2018-02-13T23:42:16.190Z,73.65
2018-02-13T23:44:46.994Z,72.97
2018-02-13T23:47:18.636Z,73.02
2018-02-13T23:49:50.189Z,72.83
2018-02-13T23:52:21.711Z,73.26
2018-02-13T23:54:52.944Z,72.92
2018-02-13T23:57:23.776Z,72.84
2018-02-13T23:59:55.041Z,72.23
